Time;durP1;ratioP1;P1;durP2;ratioP2;P2;SDS_P1;SDS_P2;PMS_P1;PMS_P2;Temp;Humidity;BMP_temperature;BMP_pressure;BME280_temperature;BME280_humidity;BME280_pressure;Samples;Min_cycle;Max_cycle;Signal;HPM_P1;HPM_P2
2021/12/29 00:01:52;;;;;;;;;;;12.70;99.90;;;;;;5018778;28;19916;-76
2021/12/29 00:04:17;;;;;;;;;;;12.70;99.90;;;;;;5017688;28;19913;-76
2021/12/29 00:06:43;;;;;;;;;;;12.80;99.90;;;;;;5018769;28;20342;-76
2021/12/29 00:09:09;;;;;;;;;;;12.80;99.90;;;;;;5018940;28;19979;-76
2021/12/29 00:11:38;;;;;;;;;;;12.80;99.90;;;;;;5018676;28;20013;-76
2021/12/29 00:14:04;;;;;;;;;;;13.00;99.90;;;;;;5018927;28;19916;-76
2021/12/29 00:16:34;;;;;;;;;;;13.00;99.90;;;;;;5018802;28;20288;-76
2021/12/29 00:19:04;;;;;;;;;;;13.10;99.90;;;;;;5018715;28;19909;-76
2021/12/29 00:21:32;;;;;;;;;;;13.20;99.90;;;;;;5018901;28;19909;-76
2021/12/29 00:23:59;;;;;;;;;;;13.20;99.90;;;;;;5018279;28;19928;-86
2021/12/29 00:26:26;;;;;;;;;;;13.20;99.90;;;;;;5018429;28;19916;-76
2021/12/29 00:28:51;;;;;;;;;;;13.30;99.90;;;;;;5018531;28;19910;-76
2021/12/29 00:31:17;;;;;;;;;;;13.30;99.90;;;;;;5018510;28;20004;-77
2021/12/29 00:33:43;;;;;;;;;;;13.30;99.90;;;;;;5020349;28;19909;-77
2021/12/29 00:36:08;;;;;;;;;;;13.40;99.90;;;;;;5018413;28;19910;-77
2021/12/29 00:38:34;;;;;;;;;;;13.40;99.90;;;;;;5017044;28;20005;-77
2021/12/29 00:41:00;;;;;;;;;;;13.50;99.90;;;;;;5018193;28;20012;-77
2021/12/29 00:43:25;;;;;;;;;;;13.50;99.90;;;;;;5018001;28;19964;-78
2021/12/29 00:45:51;;;;;;;;;;;13.50;99.90;;;;;;5018847;28;20288;-78
2021/12/29 00:48:19;;;;;;;;;;;13.50;99.90;;;;;;5016623;28;19910;-78
2021/12/29 00:50:44;;;;;;;;;;;13.60;99.90;;;;;;5018699;28;19973;-76
2021/12/29 00:53:10;;;;;;;;;;;13.60;99.90;;;;;;5018431;28;20399;-76
2021/12/29 00:55:37;;;;;;;;;;;13.60;99.90;;;;;;5017911;28;19913;-77
2021/12/29 00:58:03;;;;;;;;;;;13.70;99.90;;;;;;5016441;28;20003;-77
2021/12/29 01:00:29;;;;;;;;;;;13.70;99.90;;;;;;5019313;28;19909;-77
2021/12/29 01:02:55;;;;;;;;;;;13.70;99.90;;;;;;5017691;28;19914;-77
2021/12/29 01:05:20;;;;;;;;;;;13.70;99.90;;;;;;5018221;28;19909;-77
2021/12/29 01:07:49;;;;;;;;;;;13.70;99.90;;;;;;5017762;28;20384;-77
2021/12/29 01:10:15;;;;;;;;;;;13.70;99.90;;;;;;5016071;28;19913;-77
2021/12/29 01:12:47;;;;;;;;;;;13.80;99.90;;;;;;5017076;28;20042;-77
2021/12/29 01:15:16;;;;;;;;;;;13.80;99.90;;;;;;5017776;28;19998;-77
2021/12/29 01:17:42;;;;;;;;;;;13.80;99.90;;;;;;5017693;28;19916;-77
2021/12/29 01:20:08;;;;;;;;;;;13.80;99.90;;;;;;5017772;28;19910;-77
2021/12/29 01:22:33;;;;;;;;;;;13.80;99.90;;;;;;5017318;28;19917;-77
2021/12/29 01:24:59;;;;;;;;;;;13.80;99.90;;;;;;5017236;28;19913;-77
2021/12/29 01:27:24;;;;;;;;;;;13.90;99.90;;;;;;5017518;28;19910;-77
2021/12/29 01:29:50;;;;;;;;;;;13.90;99.90;;;;;;5016436;28;19959;-76
2021/12/29 01:32:16;;;;;;;;;;;13.80;99.90;;;;;;5019272;28;19960;-76
2021/12/29 01:34:41;;;;;;;;;;;13.90;99.90;;;;;;5017684;28;19910;-77
2021/12/29 01:37:07;;;;;;;;;;;13.90;99.90;;;;;;5016154;28;19967;-76
2021/12/29 01:39:33;;;;;;;;;;;13.90;99.90;;;;;;5017175;28;19973;-77
2021/12/29 01:41:59;;;;;;;;;;;13.90;99.90;;;;;;5017188;28;19913;-77
2021/12/29 01:44:26;;;;;;;;;;;13.90;99.90;;;;;;5016016;28;19917;-77
2021/12/29 01:46:54;;;;;;;;;;;13.90;99.90;;;;;;5017537;28;19910;-77
2021/12/29 01:49:20;;;;;;;;;;;13.90;99.90;;;;;;5016132;28;19953;-76
2021/12/29 01:51:49;;;;;;;;;;;14.00;99.90;;;;;;5017309;28;19913;-77
2021/12/29 01:54:23;;;;;;;;;;;13.90;99.90;;;;;;5017345;28;19914;-77
2021/12/29 01:56:50;;;;;;;;;;;13.90;99.90;;;;;;5017102;28;19910;-77
2021/12/29 01:59:16;;;;;;;;;;;13.90;99.90;;;;;;5018206;28;19913;-77
2021/12/29 02:01:42;;;;;;;;;;;14.00;99.90;;;;;;5018600;28;19917;-77
2021/12/29 02:04:08;;;;;;;;;;;14.00;99.90;;;;;;5017368;28;19989;-77
2021/12/29 02:06:34;;;;;;;;;;;14.00;99.90;;;;;;5017169;28;20292;-77
2021/12/29 02:08:59;;;;;;;;;;;14.00;99.90;;;;;;5017458;28;20409;-77
2021/12/29 02:11:29;;;;;;;;;;;14.00;99.90;;;;;;5015498;28;19910;-77
2021/12/29 02:13:56;;;;;;;;;;;14.10;99.90;;;;;;5017265;28;19909;-77
2021/12/29 02:16:22;;;;;;;;;;;14.10;99.90;;;;;;5017046;28;19909;-77
2021/12/29 02:18:52;;;;;;;;;;;14.10;99.90;;;;;;5017430;28;19936;-77
2021/12/29 02:21:20;;;;;;;;;;;14.10;99.90;;;;;;5016971;28;19910;-76
2021/12/29 02:24:03;;;;;;;;;;;14.10;99.90;;;;;;5016957;28;19979;-77
2021/12/29 02:26:30;;;;;;;;;;;14.10;99.90;;;;;;5020553;28;19909;-78
2021/12/29 02:28:56;;;;;;;;;;;14.20;99.90;;;;;;5020660;28;19913;-77
2021/12/29 02:31:22;;;;;;;;;;;14.20;99.90;;;;;;5019303;28;19916;-77
2021/12/29 02:33:48;;;;;;;;;;;14.20;99.90;;;;;;5022832;28;19909;-77
2021/12/29 02:36:16;;;;;;;;;;;14.20;99.90;;;;;;5020665;28;19921;-77
2021/12/29 02:38:47;;;;;;;;;;;14.20;99.90;;;;;;5020397;28;19910;-77
2021/12/29 02:41:13;;;;;;;;;;;14.20;99.90;;;;;;5020168;28;19916;-77
2021/12/29 02:43:40;;;;;;;;;;;14.30;99.90;;;;;;5020298;28;19913;-77
2021/12/29 02:46:11;;;;;;;;;;;14.30;99.90;;;;;;5020588;28;20008;-77
2021/12/29 02:48:40;;;;;;;;;;;14.30;99.90;;;;;;5020343;28;20241;-77
2021/12/29 02:51:08;;;;;;;;;;;14.30;99.90;;;;;;5020330;28;19975;-77
2021/12/29 02:53:34;;;;;;;;;;;14.30;99.90;;;;;;5019059;28;19909;-77
2021/12/29 02:55:59;;;;;;;;;;;14.30;99.90;;;;;;5018492;28;19915;-77
2021/12/29 02:58:25;;;;;;;;;;;14.30;99.90;;;;;;5020172;28;19956;-77
2021/12/29 03:00:52;;;;;;;;;;;14.30;99.90;;;;;;5022379;28;19960;-76
2021/12/29 03:03:19;;;;;;;;;;;14.30;99.90;;;;;;5020166;28;19967;-77
2021/12/29 03:05:44;;;;;;;;;;;14.30;99.90;;;;;;5020065;28;19917;-77
2021/12/29 03:08:13;;;;;;;;;;;14.40;99.90;;;;;;5019995;28;19910;-77
2021/12/29 03:10:39;;;;;;;;;;;14.30;99.90;;;;;;5019541;28;19913;-77
2021/12/29 03:13:05;;;;;;;;;;;14.30;99.90;;;;;;5019785;28;19917;-76
2021/12/29 03:15:31;;;;;;;;;;;14.30;99.90;;;;;;5019768;28;19948;-76
2021/12/29 03:17:56;;;;;;;;;;;14.30;99.90;;;;;;5019694;28;19913;-76
2021/12/29 03:20:22;;;;;;;;;;;14.30;99.90;;;;;;5019762;28;20017;-76
2021/12/29 03:22:47;;;;;;;;;;;14.30;99.90;;;;;;5019433;28;19926;-77
2021/12/29 03:25:13;;;;;;;;;;;14.30;99.90;;;;;;5019564;28;20345;-76
2021/12/29 03:27:39;;;;;;;;;;;14.30;99.90;;;;;;5018185;28;19910;-76
2021/12/29 03:30:04;;;;;;;;;;;14.40;99.90;;;;;;5018260;28;19916;-76
2021/12/29 03:32:43;;;;;;;;;;;14.40;99.90;;;;;;5020773;28;19937;-76
2021/12/29 03:35:09;;;;;;;;;;;14.40;99.90;;;;;;5018455;28;19910;-76
2021/12/29 03:37:35;;;;;;;;;;;14.40;99.90;;;;;;5018597;28;20361;-76
2021/12/29 03:40:02;;;;;;;;;;;14.40;99.90;;;;;;5019256;28;19916;-76
2021/12/29 03:42:28;;;;;;;;;;;14.40;99.90;;;;;;5019037;28;19922;-76
2021/12/29 03:44:53;;;;;;;;;;;14.40;99.90;;;;;;5019521;28;19963;-76
2021/12/29 03:47:19;;;;;;;;;;;14.40;99.90;;;;;;5019333;28;20008;-76
2021/12/29 03:49:45;;;;;;;;;;;14.40;99.90;;;;;;5019481;28;19909;-76
2021/12/29 03:52:10;;;;;;;;;;;14.40;99.90;;;;;;5019032;28;19909;-76
2021/12/29 03:54:36;;;;;;;;;;;14.40;99.90;;;;;;5019335;28;20329;-76
2021/12/29 03:57:02;;;;;;;;;;;14.40;99.90;;;;;;5017771;28;19960;-76
2021/12/29 03:59:28;;;;;;;;;;;14.40;99.90;;;;;;5021508;28;20055;-76
2021/12/29 04:01:54;;;;;;;;;;;14.40;99.90;;;;;;5019182;28;19917;-76
2021/12/29 04:04:21;;;;;;;;;;;14.40;99.90;;;;;;5019125;28;20372;-76
2021/12/29 04:06:47;;;;;;;;;;;14.40;99.90;;;;;;5019011;28;19917;-76
2021/12/29 04:09:12;;;;;;;;;;;14.40;99.90;;;;;;5018577;28;20015;-76
2021/12/29 04:11:38;;;;;;;;;;;14.40;99.90;;;;;;5018719;28;19945;-76
2021/12/29 04:14:04;;;;;;;;;;;14.40;99.90;;;;;;5017307;28;19910;-76
2021/12/29 04:16:29;;;;;;;;;;;14.40;99.90;;;;;;5017626;28;19916;-76
2021/12/29 04:21:40;;;;;;;;;;;14.50;99.90;;;;;;5018633;28;19932;-76
2021/12/29 04:24:06;;;;;;;;;;;14.50;99.90;;;;;;5018236;28;19921;-76
2021/12/29 04:26:33;;;;;;;;;;;14.50;99.90;;;;;;5018354;28;19913;-76
2021/12/29 04:28:59;;;;;;;;;;;14.50;99.90;;;;;;5018534;28;19910;-76
2021/12/29 04:31:24;;;;;;;;;;;14.50;99.90;;;;;;5017166;28;19909;-76
2021/12/29 04:33:50;;;;;;;;;;;14.50;99.90;;;;;;5019850;28;20005;-76
2021/12/29 04:36:16;;;;;;;;;;;14.50;99.90;;;;;;5018614;28;20464;-76
2021/12/29 04:38:41;;;;;;;;;;;14.50;99.90;;;;;;5018128;28;19910;-75
2021/12/29 04:41:07;;;;;;;;;;;14.50;99.90;;;;;;5018129;28;19917;-76
2021/12/29 04:43:33;;;;;;;;;;;14.50;99.90;;;;;;5018051;28;19913;-76
2021/12/29 04:45:58;;;;;;;;;;;14.50;99.90;;;;;;5018302;28;19909;-75
2021/12/29 04:48:25;;;;;;;;;;;14.50;99.90;;;;;;5017978;28;20000;-75
2021/12/29 04:50:53;;;;;;;;;;;14.50;99.90;;;;;;5018122;28;19910;-75
2021/12/29 04:53:20;;;;;;;;;;;14.50;99.90;;;;;;5017911;28;20368;-81
2021/12/29 04:55:49;;;;;;;;;;;14.50;99.90;;;;;;5016393;28;20885;-82
2021/12/29 04:58:15;;;;;;;;;;;14.50;99.90;;;;;;5018287;28;19968;-74
2021/12/29 05:00:41;;;;;;;;;;;14.50;99.90;;;;;;5020603;28;19991;-75
2021/12/29 05:03:07;;;;;;;;;;;14.60;99.90;;;;;;5017833;28;19917;-75
2021/12/29 05:10:58;;;;;;;;;;;14.50;99.90;;;;;;4994774;28;19917;-76
2021/12/29 05:13:24;;;;;;;;;;;14.60;99.90;;;;;;5017837;28;19916;-75
2021/12/29 05:15:51;;;;;;;;;;;14.60;99.90;;;;;;5016620;28;19910;-75
2021/12/29 05:18:16;;;;;;;;;;;14.50;99.90;;;;;;5018060;28;19936;-75
2021/12/29 05:20:42;;;;;;;;;;;14.60;99.90;;;;;;5017642;28;19910;-75
2021/12/29 05:23:08;;;;;;;;;;;14.60;99.90;;;;;;5017622;28;19936;-75
2021/12/29 05:25:34;;;;;;;;;;;14.60;99.90;;;;;;5017405;28;19960;-75
2021/12/29 05:27:59;;;;;;;;;;;14.50;99.90;;;;;;5018087;28;19910;-77
2021/12/29 05:30:25;;;;;;;;;;;14.60;99.90;;;;;;5017627;28;19909;-76
2021/12/29 05:32:50;;;;;;;;;;;14.60;99.90;;;;;;5020055;28;19910;-76
2021/12/29 05:35:16;;;;;;;;;;;14.60;99.90;;;;;;5017538;28;19913;-76
2021/12/29 05:37:43;;;;;;;;;;;14.60;99.90;;;;;;5017830;28;19920;-76
2021/12/29 05:40:09;;;;;;;;;;;14.60;99.90;;;;;;5016115;28;19917;-76
2021/12/29 05:42:35;;;;;;;;;;;14.70;99.90;;;;;;5017502;28;19913;-76
2021/12/29 05:45:02;;;;;;;;;;;14.60;99.90;;;;;;5016528;28;19910;-75
2021/12/29 05:47:28;;;;;;;;;;;14.70;99.90;;;;;;5017652;28;19910;-76
2021/12/29 05:49:54;;;;;;;;;;;14.70;99.90;;;;;;5017393;28;20012;-76
2021/12/29 05:52:19;;;;;;;;;;;14.70;99.90;;;;;;5017743;28;21295;-76
2021/12/29 05:54:45;;;;;;;;;;;14.70;99.90;;;;;;5015664;28;19917;-77
2021/12/29 05:57:10;;;;;;;;;;;14.70;99.90;;;;;;5016062;28;20291;-76
2021/12/29 05:59:36;;;;;;;;;;;14.70;99.90;;;;;;5020902;28;19966;-77
2021/12/29 06:02:02;;;;;;;;;;;14.70;99.90;;;;;;5019999;28;19918;-76
2021/12/29 06:04:28;;;;;;;;;;;14.70;99.90;;;;;;5019902;28;19913;-78
2021/12/29 06:06:53;;;;;;;;;;;14.70;99.90;;;;;;5021386;28;19941;-77
2021/12/29 06:09:19;;;;;;;;;;;14.70;99.90;;;;;;5019278;28;19910;-75
2021/12/29 06:11:45;;;;;;;;;;;14.70;99.90;;;;;;5021096;28;19916;-77
2021/12/29 06:14:11;;;;;;;;;;;14.70;99.90;;;;;;5019541;28;19909;-77
2021/12/29 06:16:36;;;;;;;;;;;14.70;99.90;;;;;;5019686;28;19948;-78
2021/12/29 06:19:02;;;;;;;;;;;14.70;99.90;;;;;;5020188;28;20412;-78
2021/12/29 06:21:28;;;;;;;;;;;14.70;99.90;;;;;;5021068;28;19992;-78
2021/12/29 06:23:53;;;;;;;;;;;14.70;99.90;;;;;;5020591;28;20008;-79
2021/12/29 06:26:19;;;;;;;;;;;14.70;99.90;;;;;;5020581;28;19910;-78
2021/12/29 06:28:46;;;;;;;;;;;14.70;99.90;;;;;;5020829;28;20360;-79
2021/12/29 06:31:12;;;;;;;;;;;14.70;99.90;;;;;;5020761;28;19949;-79
2021/12/29 06:33:38;;;;;;;;;;;14.70;99.90;;;;;;5020893;28;19933;-78
2021/12/29 06:36:03;;;;;;;;;;;14.70;99.90;;;;;;5019357;28;19917;-76
2021/12/29 06:38:29;;;;;;;;;;;14.70;99.90;;;;;;5020768;28;19909;-76
2021/12/29 06:40:55;;;;;;;;;;;14.70;99.90;;;;;;5020308;28;19909;-76
2021/12/29 06:43:20;;;;;;;;;;;14.80;99.90;;;;;;5020317;28;19913;-76
2021/12/29 06:45:46;;;;;;;;;;;14.70;99.90;;;;;;5020494;28;19918;-76
2021/12/29 06:48:11;;;;;;;;;;;14.80;99.90;;;;;;5019014;28;19910;-76
2021/12/29 06:50:37;;;;;;;;;;;14.80;99.90;;;;;;5020692;28;19910;-76
2021/12/29 06:53:03;;;;;;;;;;;14.80;99.90;;;;;;5020372;28;19969;-76
2021/12/29 06:55:28;;;;;;;;;;;14.80;99.90;;;;;;5019878;28;19909;-77
2021/12/29 06:57:54;;;;;;;;;;;14.80;99.90;;;;;;5020434;28;19909;-76
2021/12/29 07:00:20;;;;;;;;;;;14.80;99.90;;;;;;5021256;28;19943;-76
2021/12/29 07:02:46;;;;;;;;;;;14.80;99.90;;;;;;5018523;28;19913;-76
2021/12/29 07:05:12;;;;;;;;;;;14.80;99.90;;;;;;5018820;28;19995;-76
2021/12/29 07:07:37;;;;;;;;;;;14.90;99.90;;;;;;5020094;28;20363;-76
2021/12/29 07:10:04;;;;;;;;;;;14.90;99.90;;;;;;5019725;28;20389;-76
2021/12/29 07:12:30;;;;;;;;;;;14.80;99.90;;;;;;5020004;28;19909;-76
2021/12/29 07:14:55;;;;;;;;;;;14.90;99.90;;;;;;5020066;28;19940;-76
2021/12/29 07:17:21;;;;;;;;;;;14.80;99.90;;;;;;5020015;28;20404;-76
2021/12/29 07:19:46;;;;;;;;;;;14.80;99.90;;;;;;5020055;28;19960;-76
2021/12/29 07:22:12;;;;;;;;;;;14.90;99.90;;;;;;5019715;28;19956;-76
2021/12/29 07:24:38;;;;;;;;;;;14.80;99.90;;;;;;5017934;28;19926;-76
2021/12/29 07:27:04;;;;;;;;;;;14.90;99.90;;;;;;5019894;28;19909;-76
2021/12/29 07:29:30;;;;;;;;;;;14.90;99.90;;;;;;5018219;28;19909;-76
2021/12/29 07:31:58;;;;;;;;;;;14.90;99.90;;;;;;5020303;28;20015;-77
2021/12/29 07:34:24;;;;;;;;;;;14.90;99.90;;;;;;5019613;28;19928;-76
2021/12/29 07:36:50;;;;;;;;;;;14.90;99.90;;;;;;5019765;28;19909;-76
2021/12/29 07:39:16;;;;;;;;;;;14.80;99.90;;;;;;5018290;28;19928;-76
2021/12/29 07:41:42;;;;;;;;;;;14.90;99.90;;;;;;5019289;28;19959;-76
2021/12/29 07:44:15;;;;;;;;;;;14.90;99.90;;;;;;5019350;28;19957;-76
2021/12/29 07:46:43;;;;;;;;;;;14.90;99.90;;;;;;5019512;28;19910;-76
2021/12/29 07:49:09;;;;;;;;;;;14.90;99.90;;;;;;5019588;28;20396;-76
2021/12/29 07:51:34;;;;;;;;;;;14.90;99.90;;;;;;5019045;28;19910;-76
2021/12/29 07:54:00;;;;;;;;;;;14.90;99.90;;;;;;5017627;28;19909;-76
2021/12/29 07:56:26;;;;;;;;;;;14.90;99.90;;;;;;5018719;28;19909;-77
2021/12/29 07:58:52;;;;;;;;;;;14.90;99.90;;;;;;5017933;28;19909;-77
2021/12/29 08:01:18;;;;;;;;;;;14.90;99.90;;;;;;5021446;28;19916;-76
2021/12/29 08:03:44;;;;;;;;;;;14.90;99.90;;;;;;5017564;28;19924;-76
2021/12/29 08:06:09;;;;;;;;;;;14.90;99.90;;;;;;5018808;28;19910;-76
2021/12/29 08:08:35;;;;;;;;;;;14.90;99.90;;;;;;5018949;28;19997;-76
2021/12/29 08:11:01;;;;;;;;;;;14.90;99.90;;;;;;5017284;28;19952;-76
2021/12/29 08:13:26;;;;;;;;;;;14.90;99.90;;;;;;5018960;28;19920;-76
2021/12/29 08:15:52;;;;;;;;;;;14.90;99.90;;;;;;5018705;28;20009;-76
2021/12/29 08:18:18;;;;;;;;;;;14.90;99.90;;;;;;5018774;28;19909;-76
2021/12/29 08:20:43;;;;;;;;;;;14.90;99.90;;;;;;5017464;28;19909;-76
2021/12/29 08:23:10;;;;;;;;;;;14.90;99.90;;;;;;5017883;28;20289;-76
2021/12/29 08:25:36;;;;;;;;;;;14.90;99.90;;;;;;5018174;28;19910;-77
2021/12/29 08:28:02;;;;;;;;;;;14.90;99.90;;;;;;5018605;28;19917;-76
2021/12/29 08:30:28;;;;;;;;;;;14.90;99.90;;;;;;5017075;28;19980;-77
2021/12/29 08:32:54;;;;;;;;;;;14.90;99.90;;;;;;5020778;28;20027;-76
2021/12/29 08:35:20;;;;;;;;;;;14.90;99.90;;;;;;5018331;28;19909;-76
2021/12/29 08:37:46;;;;;;;;;;;14.90;99.90;;;;;;5018638;28;20325;-76
2021/12/29 08:40:12;;;;;;;;;;;14.90;99.90;;;;;;5018061;28;19909;-76
2021/12/29 08:42:38;;;;;;;;;;;14.90;99.90;;;;;;5018118;28;19921;-77
2021/12/29 08:45:08;;;;;;;;;;;14.90;99.90;;;;;;5018207;28;19909;-77
2021/12/29 08:47:34;;;;;;;;;;;15.00;99.90;;;;;;5018705;28;19910;-77
2021/12/29 08:50:00;;;;;;;;;;;15.00;99.90;;;;;;5018294;28;19909;-76
2021/12/29 08:52:26;;;;;;;;;;;14.90;99.90;;;;;;5018265;28;20376;-76
2021/12/29 08:54:51;;;;;;;;;;;15.00;99.90;;;;;;5017650;28;20345;-76
2021/12/29 08:57:17;;;;;;;;;;;15.00;99.90;;;;;;5018122;28;19963;-76
2021/12/29 08:59:42;;;;;;;;;;;15.00;99.90;;;;;;5020535;28;19916;-76
2021/12/29 09:02:08;;;;;;;;;;;15.00;99.90;;;;;;5018203;28;19910;-76
2021/12/29 09:04:34;;;;;;;;;;;15.00;99.90;;;;;;5017892;28;19959;-76
2021/12/29 09:07:00;;;;;;;;;;;15.10;99.90;;;;;;5018069;28;19916;-76
2021/12/29 09:09:25;;;;;;;;;;;15.10;99.90;;;;;;5017501;28;19915;-76
2021/12/29 09:11:53;;;;;;;;;;;15.10;99.90;;;;;;5016506;28;20285;-76
2021/12/29 09:14:18;;;;;;;;;;;15.10;99.90;;;;;;5016815;28;19924;-76
2021/12/29 09:16:44;;;;;;;;;;;15.10;99.90;;;;;;5016478;28;19948;-76
2021/12/29 09:19:12;;;;;;;;;;;15.20;99.90;;;;;;5017697;28;19968;-76
2021/12/29 09:21:39;;;;;;;;;;;15.20;99.90;;;;;;5018191;28;19956;-76
2021/12/29 09:24:05;;;;;;;;;;;15.20;99.90;;;;;;5015771;28;19921;-76
2021/12/29 09:26:31;;;;;;;;;;;15.20;99.90;;;;;;5016644;28;19909;-76
2021/12/29 09:28:57;;;;;;;;;;;15.20;99.90;;;;;;5017694;28;19921;-76
2021/12/29 09:31:24;;;;;;;;;;;15.20;99.90;;;;;;5017619;28;19964;-76
2021/12/29 09:33:50;;;;;;;;;;;15.20;99.90;;;;;;5020373;28;19909;-76
2021/12/29 09:36:15;;;;;;;;;;;15.20;99.90;;;;;;5021741;28;20308;-76
2021/12/29 09:38:42;;;;;;;;;;;15.20;99.90;;;;;;5021589;28;19957;-77
2021/12/29 09:41:09;;;;;;;;;;;15.20;99.90;;;;;;5019992;28;19917;-76
2021/12/29 09:43:35;;;;;;;;;;;15.20;99.90;;;;;;5021550;28;19913;-76
2021/12/29 09:46:01;;;;;;;;;;;15.20;99.90;;;;;;5021630;28;19910;-76
2021/12/29 09:48:26;;;;;;;;;;;15.20;99.90;;;;;;5021719;28;19921;-76
2021/12/29 09:50:53;;;;;;;;;;;15.20;99.90;;;;;;5021485;28;19910;-76
2021/12/29 09:53:19;;;;;;;;;;;15.30;99.90;;;;;;5020256;28;19909;-77
2021/12/29 09:55:46;;;;;;;;;;;15.30;99.90;;;;;;5019697;28;19909;-77
2021/12/29 09:58:12;;;;;;;;;;;15.40;99.90;;;;;;5021194;28;19987;-76
2021/12/29 10:00:50;;;;;;;;;;;15.40;99.90;;;;;;5024584;28;20261;-77
2021/12/29 10:03:17;;;;;;;;;;;15.50;99.70;;;;;;5021073;28;19920;-77
2021/12/29 10:05:45;;;;;;;;;;;15.50;99.30;;;;;;5021208;28;19909;-76
2021/12/29 10:08:15;;;;;;;;;;;15.50;99.00;;;;;;5021007;28;19925;-77
2021/12/29 10:10:48;;;;;;;;;;;15.50;99.00;;;;;;5020841;28;20331;-77
2021/12/29 10:13:14;;;;;;;;;;;15.50;98.90;;;;;;5020005;28;19999;-76
2021/12/29 10:15:41;;;;;;;;;;;15.50;98.90;;;;;;5019877;28;19917;-76
2021/12/29 10:18:09;;;;;;;;;;;15.50;98.90;;;;;;5021208;28;20003;-76
2021/12/29 10:20:48;;;;;;;;;;;15.50;99.00;;;;;;5021068;28;19909;-77
2021/12/29 10:23:17;;;;;;;;;;;15.40;99.20;;;;;;5020729;28;19921;-77
2021/12/29 10:25:42;;;;;;;;;;;15.40;99.60;;;;;;5020320;28;19921;-77
2021/12/29 10:28:18;;;;;;;;;;;15.40;99.80;;;;;;5020827;28;19913;-77
2021/12/29 10:30:43;;;;;;;;;;;15.40;99.90;;;;;;5020830;28;19917;-77
2021/12/29 10:33:10;;;;;;;;;;;15.40;99.90;;;;;;5022846;28;19909;-76
2021/12/29 10:35:36;;;;;;;;;;;15.40;99.90;;;;;;5020581;28;19917;-76
2021/12/29 10:38:10;;;;;;;;;;;15.40;99.90;;;;;;5020816;28;20380;-77
2021/12/29 10:40:36;;;;;;;;;;;15.50;99.90;;;;;;5020152;28;19910;-77
2021/12/29 10:43:02;;;;;;;;;;;15.50;99.90;;;;;;5020308;28;20020;-77
2021/12/29 10:45:38;;;;;;;;;;;15.50;99.70;;;;;;5020249;28;19909;-77
2021/12/29 10:48:17;;;;;;;;;;;15.50;99.60;;;;;;5020859;28;19914;-77
2021/12/29 10:50:53;;;;;;;;;;;15.50;99.40;;;;;;5020619;28;20364;-77
2021/12/29 10:53:21;;;;;;;;;;;15.60;99.20;;;;;;5020234;28;20269;-77
2021/12/29 10:55:47;;;;;;;;;;;15.60;99.10;;;;;;5020044;28;19910;-77
2021/12/29 10:58:14;;;;;;;;;;;15.70;99.00;;;;;;5020108;28;19910;-76
2021/12/29 11:00:41;;;;;;;;;;;15.70;98.70;;;;;;5022699;28;19910;-77
2021/12/29 11:03:11;;;;;;;;;;;15.80;98.30;;;;;;5020036;28;19917;-77
2021/12/29 11:05:39;;;;;;;;;;;15.80;98.20;;;;;;5020444;28;19971;-77
2021/12/29 11:08:06;;;;;;;;;;;15.80;98.10;;;;;;5019999;28;20426;-76
2021/12/29 11:10:31;;;;;;;;;;;15.80;97.80;;;;;;5019727;28;19909;-77
2021/12/29 11:12:57;;;;;;;;;;;15.80;97.70;;;;;;5019797;28;19917;-78
2021/12/29 11:15:28;;;;;;;;;;;15.80;97.90;;;;;;5019955;28;19914;-77
2021/12/29 11:17:55;;;;;;;;;;;15.80;97.80;;;;;;5020128;28;19932;-77
2021/12/29 11:20:26;;;;;;;;;;;15.80;97.50;;;;;;5018539;28;19909;-77
2021/12/29 11:22:52;;;;;;;;;;;15.80;97.50;;;;;;5019265;28;19922;-77
2021/12/29 11:25:31;;;;;;;;;;;15.80;97.60;;;;;;5019660;28;19914;-77
2021/12/29 11:27:56;;;;;;;;;;;15.80;97.70;;;;;;5019720;28;19956;-77
2021/12/29 11:30:22;;;;;;;;;;;15.90;97.60;;;;;;5019649;28;19910;-77
2021/12/29 11:32:49;;;;;;;;;;;15.90;97.80;;;;;;5022288;28;19909;-77
2021/12/29 11:35:16;;;;;;;;;;;16.00;97.70;;;;;;5019808;28;19914;-78
2021/12/29 11:37:42;;;;;;;;;;;16.10;97.50;;;;;;5018210;28;19909;-78
2021/12/29 11:40:08;;;;;;;;;;;16.10;97.00;;;;;;5017652;28;19917;-78
2021/12/29 11:42:34;;;;;;;;;;;16.20;97.00;;;;;;5019217;28;19910;-78
2021/12/29 11:45:00;;;;;;;;;;;16.20;96.70;;;;;;5019363;28;19933;-77
2021/12/29 11:47:26;;;;;;;;;;;16.20;96.80;;;;;;5019362;28;19960;-77
2021/12/29 11:49:52;;;;;;;;;;;16.20;96.70;;;;;;5019541;28;20317;-77
2021/12/29 11:52:17;;;;;;;;;;;16.20;96.50;;;;;;5019191;28;19979;-77
2021/12/29 11:55:02;;;;;;;;;;;16.20;96.40;;;;;;5018905;28;19909;-77
2021/12/29 11:57:30;;;;;;;;;;;16.20;96.10;;;;;;5017041;28;19910;-77
2021/12/29 12:00:06;;;;;;;;;;;16.10;96.30;;;;;;5021937;28;19910;-77
2021/12/29 12:02:31;;;;;;;;;;;16.10;96.40;;;;;;5018905;28;20028;-77
2021/12/29 12:05:01;;;;;;;;;;;16.10;96.30;;;;;;5017801;28;19913;-77
2021/12/29 12:07:27;;;;;;;;;;;16.10;96.40;;;;;;5018817;28;19910;-77
2021/12/29 12:09:53;;;;;;;;;;;16.10;96.40;;;;;;5018366;28;20008;-77
2021/12/29 12:12:18;;;;;;;;;;;16.10;96.30;;;;;;5018701;28;19993;-77
2021/12/29 12:14:46;;;;;;;;;;;16.10;96.20;;;;;;5018709;28;19914;-77
2021/12/29 12:17:14;;;;;;;;;;;16.10;96.20;;;;;;5018676;28;19917;-77
2021/12/29 12:19:40;;;;;;;;;;;16.10;96.10;;;;;;5018703;28;19968;-77
2021/12/29 12:22:08;;;;;;;;;;;16.10;95.90;;;;;;5018732;28;19910;-77
2021/12/29 12:24:36;;;;;;;;;;;16.20;95.90;;;;;;5017839;28;19922;-77
2021/12/29 12:27:02;;;;;;;;;;;16.10;95.90;;;;;;5018695;28;19909;-77
2021/12/29 12:29:29;;;;;;;;;;;16.10;95.90;;;;;;5018926;28;19999;-77
2021/12/29 12:32:03;;;;;;;;;;;16.10;95.80;;;;;;5020418;28;20387;-77
2021/12/29 12:34:29;;;;;;;;;;;16.20;95.80;;;;;;5018774;28;20365;-77
2021/12/29 12:36:55;;;;;;;;;;;16.20;95.80;;;;;;5016980;28;19910;-77
2021/12/29 12:39:21;;;;;;;;;;;16.20;95.60;;;;;;5018233;28;20300;-77
2021/12/29 12:41:48;;;;;;;;;;;16.20;95.50;;;;;;5018110;28;19924;-77
2021/12/29 12:44:15;;;;;;;;;;;16.20;95.60;;;;;;5018215;28;19945;-77
2021/12/29 12:46:44;;;;;;;;;;;16.10;95.60;;;;;;5017314;28;20185;-77
2021/12/29 12:49:16;;;;;;;;;;;16.20;95.70;;;;;;5016889;28;20364;-77
2021/12/29 12:51:42;;;;;;;;;;;16.20;95.60;;;;;;5018031;28;19937;-77
2021/12/29 12:54:17;;;;;;;;;;;16.10;95.90;;;;;;5017818;28;19913;-77
2021/12/29 12:56:47;;;;;;;;;;;16.10;96.20;;;;;;5018068;28;19909;-77
2021/12/29 12:59:13;;;;;;;;;;;16.20;95.90;;;;;;5018594;28;19910;-77
2021/12/29 13:01:45;;;;;;;;;;;16.20;95.80;;;;;;5019781;28;19909;-77
2021/12/29 13:04:13;;;;;;;;;;;16.20;95.80;;;;;;5017826;28;19913;-77
2021/12/29 13:06:40;;;;;;;;;;;16.20;95.50;;;;;;5016442;28;19910;-77
2021/12/29 13:09:07;;;;;;;;;;;16.20;95.40;;;;;;5017470;28;19910;-77
2021/12/29 13:11:35;;;;;;;;;;;16.20;95.50;;;;;;5017773;28;20470;-77
2021/12/29 13:14:01;;;;;;;;;;;16.20;95.60;;;;;;5017989;28;19992;-77
2021/12/29 13:16:28;;;;;;;;;;;16.20;95.70;;;;;;5016418;28;19914;-78
2021/12/29 13:18:55;;;;;;;;;;;16.20;95.60;;;;;;5017590;28;19909;-78
2021/12/29 13:21:25;;;;;;;;;;;16.20;95.60;;;;;;5015828;28;19917;-77
2021/12/29 13:23:51;;;;;;;;;;;16.20;95.40;;;;;;5016976;28;20009;-77
2021/12/29 13:26:16;;;;;;;;;;;16.30;95.50;;;;;;5017640;28;19917;-78
2021/12/29 13:28:42;;;;;;;;;;;16.30;95.30;;;;;;5017556;28;20379;-79
2021/12/29 13:31:18;;;;;;;;;;;16.30;95.30;;;;;;5017721;28;19910;-79
2021/12/29 13:33:46;;;;;;;;;;;16.30;95.60;;;;;;5018561;28;19941;-78
2021/12/29 13:36:13;;;;;;;;;;;16.30;95.70;;;;;;5017797;28;19910;-79
2021/12/29 13:38:39;;;;;;;;;;;16.30;95.60;;;;;;5017449;28;19917;-78
2021/12/29 13:41:08;;;;;;;;;;;16.30;95.50;;;;;;5017348;28;19910;-79
2021/12/29 13:43:35;;;;;;;;;;;16.30;95.60;;;;;;5017074;28;19913;-79
2021/12/29 13:46:11;;;;;;;;;;;16.40;95.40;;;;;;5016246;28;20021;-79
2021/12/29 13:48:37;;;;;;;;;;;16.30;95.20;;;;;;5017572;28;20346;-79
2021/12/29 13:51:04;;;;;;;;;;;16.30;95.30;;;;;;5017728;28;20316;-79
2021/12/29 13:53:31;;;;;;;;;;;16.30;95.20;;;;;;5017251;28;19916;-78
2021/12/29 13:56:03;;;;;;;;;;;16.30;94.90;;;;;;5015705;28;19917;-79
2021/12/29 13:58:29;;;;;;;;;;;16.30;95.30;;;;;;5017322;28;19917;-79
2021/12/29 14:00:55;;;;;;;;;;;16.30;95.40;;;;;;5019698;28;19909;-79
2021/12/29 14:03:20;;;;;;;;;;;16.30;95.30;;;;;;5015790;28;19913;-79
2021/12/29 14:05:47;;;;;;;;;;;16.30;95.20;;;;;;5017248;28;19928;-79
2021/12/29 14:08:15;;;;;;;;;;;16.30;95.20;;;;;;5017339;28;19913;-79
2021/12/29 14:10:41;;;;;;;;;;;16.30;95.20;;;;;;5016854;28;19913;-79
2021/12/29 14:13:09;;;;;;;;;;;16.30;95.00;;;;;;5017241;28;19920;-79
2021/12/29 14:15:34;;;;;;;;;;;16.30;95.20;;;;;;5017280;28;19964;-79
2021/12/29 14:18:10;;;;;;;;;;;16.20;95.10;;;;;;5017024;28;19910;-79
2021/12/29 14:20:36;;;;;;;;;;;16.20;95.00;;;;;;5018395;28;19945;-79
2021/12/29 14:23:03;;;;;;;;;;;16.20;94.90;;;;;;5020646;28;19921;-78